sensor_id;sensor_type;location;lat;lon;timestamp;P1;durP1;ratioP1;P2;durP2;ratioP2
19903;SDS011;10114;50.970;4.962;2022-08-21T00:00:51;12.38;;;2.40;;
19903;SDS011;10114;50.970;4.962;2022-08-21T00:03:17;10.38;;;1.98;;
19903;SDS011;10114;50.970;4.962;2022-08-21T00:05:45;8.73;;;2.00;;
19903;SDS011;10114;50.970;4.962;2022-08-21T00:08:11;8.50;;;1.92;;
19903;SDS011;10114;50.970;4.962;2022-08-21T00:10:38;9.73;;;2.05;;
19903;SDS011;10114;50.970;4.962;2022-08-21T00:13:05;12.70;;;2.25;;
19903;SDS011;10114;50.970;4.962;2022-08-21T00:15:31;9.95;;;2.47;;
19903;SDS011;10114;50.970;4.962;2022-08-21T00:17:57;14.20;;;2.25;;
19903;SDS011;10114;50.970;4.962;2022-08-21T00:20:24;7.28;;;2.00;;
19903;SDS011;10114;50.970;4.962;2022-08-21T00:22:50;10.30;;;2.40;;
19903;SDS011;10114;50.970;4.962;2022-08-21T00:25:17;11.18;;;2.25;;
19903;SDS011;10114;50.970;4.962;2022-08-21T00:27:44;9.07;;;2.30;;
19903;SDS011;10114;50.970;4.962;2022-08-21T00:30:11;9.30;;;2.13;;
19903;SDS011;10114;50.970;4.962;2022-08-21T00:32:38;6.30;;;2.00;;
19903;SDS011;10114;50.970;4.962;2022-08-21T00:35:05;11.45;;;2.33;;
19903;SDS011;10114;50.970;4.962;2022-08-21T00:37:31;9.30;;;2.28;;
19903;SDS011;10114;50.970;4.962;2022-08-21T00:39:57;8.27;;;2.13;;
19903;SDS011;10114;50.970;4.962;2022-08-21T00:42:23;8.27;;;1.85;;
19903;SDS011;10114;50.970;4.962;2022-08-21T00:44:49;9.00;;;2.00;;
19903;SDS011;10114;50.970;4.962;2022-08-21T00:47:17;6.68;;;1.95;;
19903;SDS011;10114;50.970;4.962;2022-08-21T00:49:43;9.65;;;2.25;;
19903;SDS011;10114;50.970;4.962;2022-08-21T00:52:11;8.63;;;2.70;;
19903;SDS011;10114;50.970;4.962;2022-08-21T00:54:38;9.10;;;2.05;;
19903;SDS011;10114;50.970;4.962;2022-08-21T00:57:07;9.10;;;2.97;;
19903;SDS011;10114;50.970;4.962;2022-08-21T00:59:35;10.90;;;2.78;;
19903;SDS011;10114;50.970;4.962;2022-08-21T01:02:03;9.02;;;2.90;;
19903;SDS011;10114;50.970;4.962;2022-08-21T01:04:29;10.70;;;2.40;;
19903;SDS011;10114;50.970;4.962;2022-08-21T01:06:55;9.10;;;2.72;;
19903;SDS011;10114;50.970;4.962;2022-08-21T01:09:21;12.60;;;2.75;;
19903;SDS011;10114;50.970;4.962;2022-08-21T01:11:48;11.05;;;2.90;;
19903;SDS011;10114;50.970;4.962;2022-08-21T01:14:14;9.20;;;2.45;;
19903;SDS011;10114;50.970;4.962;2022-08-21T01:16:41;10.98;;;2.78;;
19903;SDS011;10114;50.970;4.962;2022-08-21T01:19:09;8.68;;;2.28;;
19903;SDS011;10114;50.970;4.962;2022-08-21T01:21:36;11.68;;;2.50;;
19903;SDS011;10114;50.970;4.962;2022-08-21T01:24:02;7.32;;;2.85;;
19903;SDS011;10114;50.970;4.962;2022-08-21T01:26:29;11.52;;;2.72;;
19903;SDS011;10114;50.970;4.962;2022-08-21T01:31:22;9.70;;;2.40;;
19903;SDS011;10114;50.970;4.962;2022-08-21T01:33:49;7.93;;;2.50;;
19903;SDS011;10114;50.970;4.962;2022-08-21T01:36:15;6.50;;;2.03;;
19903;SDS011;10114;50.970;4.962;2022-08-21T01:38:41;10.82;;;2.60;;
19903;SDS011;10114;50.970;4.962;2022-08-21T01:41:07;14.25;;;2.53;;
19903;SDS011;10114;50.970;4.962;2022-08-21T01:43:33;10.32;;;2.70;;
19903;SDS011;10114;50.970;4.962;2022-08-21T01:45:59;11.65;;;3.08;;
19903;SDS011;10114;50.970;4.962;2022-08-21T01:48:25;8.45;;;2.75;;
19903;SDS011;10114;50.970;4.962;2022-08-21T01:50:51;11.05;;;2.88;;
19903;SDS011;10114;50.970;4.962;2022-08-21T01:53:17;9.73;;;3.15;;
19903;SDS011;10114;50.970;4.962;2022-08-21T01:55:44;11.68;;;2.85;;
19903;SDS011;10114;50.970;4.962;2022-08-21T01:58:10;10.25;;;2.80;;
19903;SDS011;10114;50.970;4.962;2022-08-21T02:00:36;12.20;;;3.05;;
19903;SDS011;10114;50.970;4.962;2022-08-21T02:03:03;9.25;;;2.83;;
19903;SDS011;10114;50.970;4.962;2022-08-21T02:05:29;9.95;;;2.78;;
19903;SDS011;10114;50.970;4.962;2022-08-21T02:07:56;6.43;;;2.80;;
19903;SDS011;10114;50.970;4.962;2022-08-21T02:10:27;12.80;;;2.92;;
19903;SDS011;10114;50.970;4.962;2022-08-21T02:12:53;12.52;;;2.70;;
19903;SDS011;10114;50.970;4.962;2022-08-21T02:15:20;8.77;;;2.60;;
19903;SDS011;10114;50.970;4.962;2022-08-21T02:17:47;7.18;;;2.45;;
19903;SDS011;10114;50.970;4.962;2022-08-21T02:20:56;8.57;;;2.95;;
19903;SDS011;10114;50.970;4.962;2022-08-21T02:23:04;9.93;;;2.58;;
19903;SDS011;10114;50.970;4.962;2022-08-21T02:25:30;8.73;;;2.58;;
19903;SDS011;10114;50.970;4.962;2022-08-21T02:27:57;7.13;;;2.80;;
19903;SDS011;10114;50.970;4.962;2022-08-21T02:30:25;16.73;;;2.80;;
19903;SDS011;10114;50.970;4.962;2022-08-21T02:32:51;9.70;;;2.38;;
19903;SDS011;10114;50.970;4.962;2022-08-21T02:35:18;8.13;;;2.70;;
19903;SDS011;10114;50.970;4.962;2022-08-21T02:38:27;8.85;;;2.70;;
19903;SDS011;10114;50.970;4.962;2022-08-21T02:40:34;9.15;;;2.50;;
19903;SDS011;10114;50.970;4.962;2022-08-21T02:43:01;11.18;;;2.78;;
19903;SDS011;10114;50.970;4.962;2022-08-21T02:45:27;8.98;;;2.13;;
19903;SDS011;10114;50.970;4.962;2022-08-21T02:47:55;12.93;;;2.50;;
19903;SDS011;10114;50.970;4.962;2022-08-21T02:50:23;12.60;;;2.70;;
19903;SDS011;10114;50.970;4.962;2022-08-21T02:52:50;9.35;;;3.00;;
19903;SDS011;10114;50.970;4.962;2022-08-21T02:55:17;13.27;;;2.97;;
19903;SDS011;10114;50.970;4.962;2022-08-21T02:57:45;15.60;;;3.47;;
19903;SDS011;10114;50.970;4.962;2022-08-21T03:00:11;9.90;;;2.80;;
19903;SDS011;10114;50.970;4.962;2022-08-21T03:02:38;10.73;;;2.38;;
19903;SDS011;10114;50.970;4.962;2022-08-21T03:05:04;10.23;;;2.70;;
19903;SDS011;10114;50.970;4.962;2022-08-21T03:07:30;8.85;;;2.70;;
19903;SDS011;10114;50.970;4.962;2022-08-21T03:09:56;8.38;;;2.60;;
19903;SDS011;10114;50.970;4.962;2022-08-21T03:12:23;13.70;;;2.88;;
19903;SDS011;10114;50.970;4.962;2022-08-21T03:14:49;10.40;;;2.83;;
19903;SDS011;10114;50.970;4.962;2022-08-21T03:17:15;11.25;;;2.78;;
19903;SDS011;10114;50.970;4.962;2022-08-21T03:19:41;10.48;;;2.50;;
19903;SDS011;10114;50.970;4.962;2022-08-21T03:22:07;10.00;;;2.72;;
19903;SDS011;10114;50.970;4.962;2022-08-21T03:24:33;16.88;;;3.13;;
19903;SDS011;10114;50.970;4.962;2022-08-21T03:26:59;8.73;;;2.38;;
19903;SDS011;10114;50.970;4.962;2022-08-21T03:29:25;10.73;;;2.72;;
19903;SDS011;10114;50.970;4.962;2022-08-21T03:31:51;8.68;;;3.22;;
19903;SDS011;10114;50.970;4.962;2022-08-21T03:34:19;9.85;;;2.53;;
19903;SDS011;10114;50.970;4.962;2022-08-21T03:36:45;5.68;;;2.40;;
19903;SDS011;10114;50.970;4.962;2022-08-21T03:39:12;9.73;;;2.58;;
19903;SDS011;10114;50.970;4.962;2022-08-21T03:41:38;10.40;;;3.08;;
19903;SDS011;10114;50.970;4.962;2022-08-21T03:44:04;8.00;;;2.17;;
19903;SDS011;10114;50.970;4.962;2022-08-21T03:46:30;10.00;;;2.45;;
19903;SDS011;10114;50.970;4.962;2022-08-21T03:48:56;9.90;;;2.50;;
19903;SDS011;10114;50.970;4.962;2022-08-21T03:51:22;8.63;;;2.35;;
19903;SDS011;10114;50.970;4.962;2022-08-21T03:53:48;16.42;;;2.53;;
19903;SDS011;10114;50.970;4.962;2022-08-21T03:56:14;9.02;;;2.38;;
19903;SDS011;10114;50.970;4.962;2022-08-21T03:58:41;14.02;;;3.13;;
19903;SDS011;10114;50.970;4.962;2022-08-21T04:01:07;10.70;;;2.83;;
19903;SDS011;10114;50.970;4.962;2022-08-21T04:03:35;9.55;;;2.47;;
19903;SDS011;10114;50.970;4.962;2022-08-21T04:06:01;6.53;;;2.25;;
19903;SDS011;10114;50.970;4.962;2022-08-21T04:08:27;10.95;;;2.42;;
19903;SDS011;10114;50.970;4.962;2022-08-21T04:10:54;8.32;;;2.60;;
19903;SDS011;10114;50.970;4.962;2022-08-21T04:13:21;6.13;;;2.35;;
19903;SDS011;10114;50.970;4.962;2022-08-21T04:15:47;7.32;;;2.42;;
19903;SDS011;10114;50.970;4.962;2022-08-21T04:18:14;9.90;;;2.65;;
19903;SDS011;10114;50.970;4.962;2022-08-21T04:20:40;9.18;;;2.17;;
19903;SDS011;10114;50.970;4.962;2022-08-21T04:23:07;8.90;;;2.20;;
19903;SDS011;10114;50.970;4.962;2022-08-21T04:25:33;11.27;;;2.10;;
19903;SDS011;10114;50.970;4.962;2022-08-21T04:28:00;8.15;;;2.33;;
19903;SDS011;10114;50.970;4.962;2022-08-21T04:30:27;9.13;;;2.40;;
19903;SDS011;10114;50.970;4.962;2022-08-21T04:32:53;7.25;;;2.05;;
19903;SDS011;10114;50.970;4.962;2022-08-21T04:35:20;9.65;;;2.38;;
19903;SDS011;10114;50.970;4.962;2022-08-21T04:37:46;7.15;;;2.70;;
19903;SDS011;10114;50.970;4.962;2022-08-21T04:40:13;10.18;;;2.72;;
19903;SDS011;10114;50.970;4.962;2022-08-21T04:42:44;11.93;;;2.25;;
19903;SDS011;10114;50.970;4.962;2022-08-21T04:45:16;13.13;;;2.55;;
19903;SDS011;10114;50.970;4.962;2022-08-21T04:47:42;10.50;;;2.55;;
19903;SDS011;10114;50.970;4.962;2022-08-21T04:50:08;9.75;;;2.67;;
19903;SDS011;10114;50.970;4.962;2022-08-21T04:52:34;10.13;;;3.35;;
19903;SDS011;10114;50.970;4.962;2022-08-21T04:55:00;12.55;;;3.08;;
19903;SDS011;10114;50.970;4.962;2022-08-21T04:57:26;10.10;;;2.72;;
19903;SDS011;10114;50.970;4.962;2022-08-21T04:59:52;8.15;;;2.50;;
19903;SDS011;10114;50.970;4.962;2022-08-21T05:02:18;13.00;;;3.08;;
19903;SDS011;10114;50.970;4.962;2022-08-21T05:04:50;9.23;;;2.55;;
19903;SDS011;10114;50.970;4.962;2022-08-21T05:07:19;8.38;;;2.55;;
19903;SDS011;10114;50.970;4.962;2022-08-21T05:09:46;10.15;;;2.97;;
19903;SDS011;10114;50.970;4.962;2022-08-21T05:12:12;5.95;;;2.42;;
19903;SDS011;10114;50.970;4.962;2022-08-21T05:14:38;9.55;;;2.75;;
19903;SDS011;10114;50.970;4.962;2022-08-21T05:17:04;8.45;;;2.47;;
19903;SDS011;10114;50.970;4.962;2022-08-21T05:19:30;14.57;;;3.10;;
19903;SDS011;10114;50.970;4.962;2022-08-21T05:21:56;8.60;;;2.20;;
19903;SDS011;10114;50.970;4.962;2022-08-21T05:24:23;9.05;;;2.38;;
19903;SDS011;10114;50.970;4.962;2022-08-21T05:26:49;8.40;;;2.80;;
19903;SDS011;10114;50.970;4.962;2022-08-21T05:29:15;12.13;;;2.70;;
19903;SDS011;10114;50.970;4.962;2022-08-21T05:31:41;12.00;;;2.67;;
19903;SDS011;10114;50.970;4.962;2022-08-21T05:34:07;12.65;;;2.72;;
19903;SDS011;10114;50.970;4.962;2022-08-21T05:36:33;8.93;;;2.95;;
19903;SDS011;10114;50.970;4.962;2022-08-21T05:38:59;6.70;;;2.47;;
19903;SDS011;10114;50.970;4.962;2022-08-21T05:41:25;14.23;;;2.80;;
19903;SDS011;10114;50.970;4.962;2022-08-21T05:43:51;9.15;;;2.40;;
19903;SDS011;10114;50.970;4.962;2022-08-21T05:46:17;6.97;;;2.30;;
19903;SDS011;10114;50.970;4.962;2022-08-21T05:48:43;8.38;;;2.25;;
19903;SDS011;10114;50.970;4.962;2022-08-21T05:51:13;6.88;;;2.42;;
19903;SDS011;10114;50.970;4.962;2022-08-21T05:53:40;7.55;;;2.03;;
19903;SDS011;10114;50.970;4.962;2022-08-21T05:56:09;11.48;;;2.13;;
19903;SDS011;10114;50.970;4.962;2022-08-21T05:58:36;6.07;;;1.92;;
19903;SDS011;10114;50.970;4.962;2022-08-21T06:01:02;6.35;;;1.80;;
19903;SDS011;10114;50.970;4.962;2022-08-21T06:03:29;6.70;;;2.00;;
19903;SDS011;10114;50.970;4.962;2022-08-21T06:05:56;11.82;;;2.55;;
19903;SDS011;10114;50.970;4.962;2022-08-21T06:08:22;8.93;;;1.98;;
19903;SDS011;10114;50.970;4.962;2022-08-21T06:10:49;8.23;;;2.33;;
19903;SDS011;10114;50.970;4.962;2022-08-21T06:13:16;8.43;;;2.17;;
19903;SDS011;10114;50.970;4.962;2022-08-21T06:15:42;7.88;;;3.03;;
19903;SDS011;10114;50.970;4.962;2022-08-21T06:18:08;8.88;;;2.33;;
19903;SDS011;10114;50.970;4.962;2022-08-21T06:20:34;5.35;;;2.08;;
19903;SDS011;10114;50.970;4.962;2022-08-21T06:23:01;10.07;;;2.33;;
19903;SDS011;10114;50.970;4.962;2022-08-21T06:25:27;11.02;;;2.15;;
19903;SDS011;10114;50.970;4.962;2022-08-21T06:27:53;9.25;;;2.25;;
19903;SDS011;10114;50.970;4.962;2022-08-21T06:30:25;6.57;;;2.08;;
19903;SDS011;10114;50.970;4.962;2022-08-21T06:32:51;6.85;;;2.35;;
19903;SDS011;10114;50.970;4.962;2022-08-21T06:35:17;7.13;;;1.90;;
19903;SDS011;10114;50.970;4.962;2022-08-21T06:37:43;8.02;;;1.90;;
19903;SDS011;10114;50.970;4.962;2022-08-21T06:40:09;8.13;;;2.25;;
19903;SDS011;10114;50.970;4.962;2022-08-21T06:42:36;7.53;;;1.90;;
19903;SDS011;10114;50.970;4.962;2022-08-21T06:45:03;10.55;;;1.98;;
19903;SDS011;10114;50.970;4.962;2022-08-21T06:47:29;12.00;;;2.40;;
19903;SDS011;10114;50.970;4.962;2022-08-21T06:49:55;10.00;;;1.83;;
19903;SDS011;10114;50.970;4.962;2022-08-21T06:52:21;7.90;;;1.67;;
19903;SDS011;10114;50.970;4.962;2022-08-21T06:54:47;14.20;;;2.05;;
19903;SDS011;10114;50.970;4.962;2022-08-21T06:57:13;7.32;;;1.63;;
19903;SDS011;10114;50.970;4.962;2022-08-21T06:59:39;11.45;;;2.00;;
19903;SDS011;10114;50.970;4.962;2022-08-21T07:02:05;6.63;;;1.60;;
19903;SDS011;10114;50.970;4.962;2022-08-21T07:04:31;9.60;;;2.17;;
19903;SDS011;10114;50.970;4.962;2022-08-21T07:06:57;11.07;;;2.03;;
19903;SDS011;10114;50.970;4.962;2022-08-21T07:09:23;8.82;;;1.50;;
19903;SDS011;10114;50.970;4.962;2022-08-21T07:11:50;9.23;;;2.58;;
19903;SDS011;10114;50.970;4.962;2022-08-21T07:14:16;8.30;;;1.60;;
19903;SDS011;10114;50.970;4.962;2022-08-21T07:16:42;10.05;;;1.70;;
19903;SDS011;10114;50.970;4.962;2022-08-21T07:19:09;11.43;;;1.88;;
19903;SDS011;10114;50.970;4.962;2022-08-21T07:21:35;7.00;;;1.40;;
19903;SDS011;10114;50.970;4.962;2022-08-21T07:24:01;10.65;;;2.13;;
19903;SDS011;10114;50.970;4.962;2022-08-21T07:26:27;6.82;;;1.75;;
19903;SDS011;10114;50.970;4.962;2022-08-21T07:28:53;11.98;;;1.70;;
19903;SDS011;10114;50.970;4.962;2022-08-21T07:31:20;7.47;;;1.60;;
19903;SDS011;10114;50.970;4.962;2022-08-21T07:33:47;8.98;;;1.60;;
19903;SDS011;10114;50.970;4.962;2022-08-21T07:36:13;8.85;;;2.00;;
19903;SDS011;10114;50.970;4.962;2022-08-21T07:38:39;8.77;;;2.08;;
19903;SDS011;10114;50.970;4.962;2022-08-21T07:41:07;13.65;;;1.80;;
19903;SDS011;10114;50.970;4.962;2022-08-21T07:43:36;10.13;;;1.95;;
19903;SDS011;10114;50.970;4.962;2022-08-21T07:46:02;11.18;;;1.90;;
19903;SDS011;10114;50.970;4.962;2022-08-21T07:48:28;9.45;;;1.88;;
19903;SDS011;10114;50.970;4.962;2022-08-21T07:50:54;8.55;;;1.67;;
19903;SDS011;10114;50.970;4.962;2022-08-21T07:53:21;7.15;;;1.50;;
19903;SDS011;10114;50.970;4.962;2022-08-21T07:55:47;9.13;;;1.50;;
19903;SDS011;10114;50.970;4.962;2022-08-21T07:58:13;6.90;;;1.55;;
19903;SDS011;10114;50.970;4.962;2022-08-21T08:00:39;11.13;;;3.03;;
19903;SDS011;10114;50.970;4.962;2022-08-21T08:03:05;6.57;;;1.38;;
19903;SDS011;10114;50.970;4.962;2022-08-21T08:05:31;7.45;;;1.40;;
19903;SDS011;10114;50.970;4.962;2022-08-21T08:07:57;7.85;;;1.50;;
19903;SDS011;10114;50.970;4.962;2022-08-21T08:10:24;8.65;;;1.50;;
19903;SDS011;10114;50.970;4.962;2022-08-21T08:12:51;11.02;;;1.88;;
19903;SDS011;10114;50.970;4.962;2022-08-21T08:15:20;7.15;;;1.27;;
19903;SDS011;10114;50.970;4.962;2022-08-21T08:17:46;8.52;;;1.42;;
19903;SDS011;10114;50.970;4.962;2022-08-21T08:20:13;7.85;;;1.95;;
19903;SDS011;10114;50.970;4.962;2022-08-21T08:22:40;6.53;;;1.55;;
19903;SDS011;10114;50.970;4.962;2022-08-21T08:25:07;8.20;;;1.50;;
19903;SDS011;10114;50.970;4.962;2022-08-21T08:27:33;10.88;;;1.77;;
19903;SDS011;10114;50.970;4.962;2022-08-21T08:29:59;8.63;;;1.23;;
19903;SDS011;10114;50.970;4.962;2022-08-21T08:32:26;5.70;;;1.35;;
19903;SDS011;10114;50.970;4.962;2022-08-21T08:34:52;7.55;;;1.40;;
19903;SDS011;10114;50.970;4.962;2022-08-21T08:37:18;10.82;;;1.45;;
19903;SDS011;10114;50.970;4.962;2022-08-21T08:39:45;6.03;;;1.40;;
19903;SDS011;10114;50.970;4.962;2022-08-21T08:42:12;8.43;;;1.00;;
19903;SDS011;10114;50.970;4.962;2022-08-21T08:44:41;9.20;;;2.38;;
19903;SDS011;10114;50.970;4.962;2022-08-21T08:47:08;7.18;;;1.30;;
19903;SDS011;10114;50.970;4.962;2022-08-21T08:49:37;6.57;;;1.60;;
19903;SDS011;10114;50.970;4.962;2022-08-21T08:52:27;9.10;;;1.42;;
19903;SDS011;10114;50.970;4.962;2022-08-21T08:54:51;6.00;;;1.15;;
19903;SDS011;10114;50.970;4.962;2022-08-21T08:57:22;9.23;;;1.65;;
19903;SDS011;10114;50.970;4.962;2022-08-21T08:59:52;9.75;;;1.45;;
19903;SDS011;10114;50.970;4.962;2022-08-21T09:02:20;10.95;;;1.42;;
19903;SDS011;10114;50.970;4.962;2022-08-21T09:04:48;3.92;;;1.20;;
19903;SDS011;10114;50.970;4.962;2022-08-21T09:10:20;5.28;;;1.27;;
19903;SDS011;10114;50.970;4.962;2022-08-21T09:23:35;4.90;;;1.45;;
19903;SDS011;10114;50.970;4.962;2022-08-21T09:28:25;7.35;;;1.25;;
19903;SDS011;10114;50.970;4.962;2022-08-21T09:30:54;8.63;;;2.05;;
19903;SDS011;10114;50.970;4.962;2022-08-21T09:33:21;8.75;;;1.55;;
19903;SDS011;10114;50.970;4.962;2022-08-21T09:35:54;7.55;;;1.25;;
19903;SDS011;10114;50.970;4.962;2022-08-21T09:38:33;8.07;;;1.30;;
19903;SDS011;10114;50.970;4.962;2022-08-21T09:41:09;5.45;;;1.13;;
19903;SDS011;10114;50.970;4.962;2022-08-21T09:43:36;9.32;;;1.60;;
19903;SDS011;10114;50.970;4.962;2022-08-21T09:46:10;4.88;;;1.00;;
19903;SDS011;10114;50.970;4.962;2022-08-21T09:48:55;10.45;;;1.45;;
19903;SDS011;10114;50.970;4.962;2022-08-21T09:51:23;6.40;;;1.20;;
19903;SDS011;10114;50.970;4.962;2022-08-21T09:54:13;8.52;;;1.42;;
19903;SDS011;10114;50.970;4.962;2022-08-21T09:56:40;7.13;;;1.40;;
19903;SDS011;10114;50.970;4.962;2022-08-21T09:59:35;5.90;;;0.90;;
19903;SDS011;10114;50.970;4.962;2022-08-21T10:05:03;6.45;;;1.02;;
19903;SDS011;10114;50.970;4.962;2022-08-21T10:07:30;6.70;;;1.27;;
19903;SDS011;10114;50.970;4.962;2022-08-21T10:10:00;5.28;;;1.13;;
19903;SDS011;10114;50.970;4.962;2022-08-21T10:12:38;11.52;;;1.75;;
19903;SDS011;10114;50.970;4.962;2022-08-21T10:20:28;7.63;;;1.80;;
19903;SDS011;10114;50.970;4.962;2022-08-21T10:23:16;6.30;;;1.35;;
19903;SDS011;10114;50.970;4.962;2022-08-21T10:25:56;6.20;;;1.05;;
19903;SDS011;10114;50.970;4.962;2022-08-21T10:31:00;6.43;;;1.48;;
19903;SDS011;10114;50.970;4.962;2022-08-21T10:41:14;7.80;;;1.23;;
19903;SDS011;10114;50.970;4.962;2022-08-21T10:48:42;8.63;;;1.55;;
19903;SDS011;10114;50.970;4.962;2022-08-21T10:51:16;11.70;;;1.98;;
19903;SDS011;10114;50.970;4.962;2022-08-21T10:53:59;10.10;;;2.00;;
19903;SDS011;10114;50.970;4.962;2022-08-21T10:56:31;8.73;;;2.00;;
19903;SDS011;10114;50.970;4.962;2022-08-21T11:01:46;9.75;;;1.58;;
19903;SDS011;10114;50.970;4.962;2022-08-21T11:04:15;8.77;;;1.70;;
19903;SDS011;10114;50.970;4.962;2022-08-21T11:06:46;8.93;;;1.80;;
19903;SDS011;10114;50.970;4.962;2022-08-21T11:09:18;9.40;;;1.40;;
19903;SDS011;10114;50.970;4.962;2022-08-21T11:11:46;9.02;;;1.55;;
19903;SDS011;10114;50.970;4.962;2022-08-21T11:14:57;6.60;;;1.58;;
19903;SDS011;10114;50.970;4.962;2022-08-21T11:17:10;8.52;;;1.58;;
19903;SDS011;10114;50.970;4.962;2022-08-21T11:19:40;9.95;;;1.75;;
19903;SDS011;10114;50.970;4.962;2022-08-21T11:27:30;9.38;;;1.73;;
19903;SDS011;10114;50.970;4.962;2022-08-21T11:29:59;8.73;;;1.70;;
19903;SDS011;10114;50.970;4.962;2022-08-21T11:32:42;9.48;;;1.50;;
19903;SDS011;10114;50.970;4.962;2022-08-21T11:45:33;11.13;;;1.92;;
19903;SDS011;10114;50.970;4.962;2022-08-21T11:50:33;8.63;;;1.40;;
19903;SDS011;10114;50.970;4.962;2022-08-21T11:53:05;11.02;;;1.80;;
19903;SDS011;10114;50.970;4.962;2022-08-21T11:55:36;10.93;;;1.50;;
19903;SDS011;10114;50.970;4.962;2022-08-21T11:58:09;9.57;;;1.70;;
19903;SDS011;10114;50.970;4.962;2022-08-21T12:00:42;8.05;;;1.27;;
19903;SDS011;10114;50.970;4.962;2022-08-21T12:03:14;8.75;;;1.80;;
19903;SDS011;10114;50.970;4.962;2022-08-21T12:05:42;7.30;;;1.58;;
19903;SDS011;10114;50.970;4.962;2022-08-21T12:10:42;5.97;;;1.30;;
19903;SDS011;10114;50.970;4.962;2022-08-21T12:13:21;10.20;;;2.33;;
19903;SDS011;10114;50.970;4.962;2022-08-21T12:15:48;7.90;;;1.90;;
19903;SDS011;10114;50.970;4.962;2022-08-21T12:18:48;9.07;;;1.40;;
19903;SDS011;10114;50.970;4.962;2022-08-21T12:24:00;8.77;;;1.92;;
19903;SDS011;10114;50.970;4.962;2022-08-21T12:26:30;10.77;;;2.05;;
19903;SDS011;10114;50.970;4.962;2022-08-21T12:29:07;8.90;;;2.08;;
19903;SDS011;10114;50.970;4.962;2022-08-21T12:31:36;7.22;;;1.42;;
19903;SDS011;10114;50.970;4.962;2022-08-21T12:34:12;10.10;;;1.80;;
19903;SDS011;10114;50.970;4.962;2022-08-21T12:39:44;7.78;;;1.70;;
19903;SDS011;10114;50.970;4.962;2022-08-21T12:42:30;4.78;;;1.27;;
19903;SDS011;10114;50.970;4.962;2022-08-21T12:44:59;9.07;;;1.33;;
19903;SDS011;10114;50.970;4.962;2022-08-21T12:47:31;6.53;;;1.25;;
19903;SDS011;10114;50.970;4.962;2022-08-21T12:50:02;8.82;;;1.30;;
19903;SDS011;10114;50.970;4.962;2022-08-21T12:52:32;10.13;;;1.98;;
19903;SDS011;10114;50.970;4.962;2022-08-21T12:54:59;10.85;;;1.98;;
19903;SDS011;10114;50.970;4.962;2022-08-21T12:57:27;11.32;;;1.63;;
19903;SDS011;10114;50.970;4.962;2022-08-21T12:59:57;6.53;;;1.15;;
19903;SDS011;10114;50.970;4.962;2022-08-21T13:02:25;10.75;;;1.45;;
19903;SDS011;10114;50.970;4.962;2022-08-21T13:04:52;8.90;;;1.50;;
19903;SDS011;10114;50.970;4.962;2022-08-21T13:07:28;8.18;;;1.52;;
19903;SDS011;10114;50.970;4.962;2022-08-21T13:09:57;10.93;;;2.08;;
19903;SDS011;10114;50.970;4.962;2022-08-21T13:12:23;8.73;;;1.65;;
19903;SDS011;10114;50.970;4.962;2022-08-21T13:14:50;8.55;;;1.73;;
19903;SDS011;10114;50.970;4.962;2022-08-21T13:17:17;13.88;;;1.80;;
19903;SDS011;10114;50.970;4.962;2022-08-21T13:19:57;8.20;;;1.25;;
19903;SDS011;10114;50.970;4.962;2022-08-21T13:22:24;7.05;;;1.30;;
19903;SDS011;10114;50.970;4.962;2022-08-21T13:24:50;8.15;;;1.58;;
19903;SDS011;10114;50.970;4.962;2022-08-21T13:27:28;6.97;;;1.15;;
19903;SDS011;10114;50.970;4.962;2022-08-21T13:30:02;5.32;;;1.33;;
19903;SDS011;10114;50.970;4.962;2022-08-21T13:32:29;7.47;;;1.27;;
19903;SDS011;10114;50.970;4.962;2022-08-21T13:34:57;9.55;;;1.83;;
19903;SDS011;10114;50.970;4.962;2022-08-21T13:37:24;7.70;;;1.70;;
19903;SDS011;10114;50.970;4.962;2022-08-21T13:39:53;9.45;;;1.67;;
19903;SDS011;10114;50.970;4.962;2022-08-21T13:42:19;5.85;;;1.20;;
19903;SDS011;10114;50.970;4.962;2022-08-21T13:44:48;10.75;;;1.52;;
19903;SDS011;10114;50.970;4.962;2022-08-21T13:47:17;9.20;;;1.70;;
19903;SDS011;10114;50.970;4.962;2022-08-21T13:49:45;9.32;;;1.65;;
19903;SDS011;10114;50.970;4.962;2022-08-21T13:52:16;8.90;;;1.77;;
19903;SDS011;10114;50.970;4.962;2022-08-21T13:54:44;8.00;;;1.55;;
19903;SDS011;10114;50.970;4.962;2022-08-21T13:57:17;6.72;;;1.60;;
19903;SDS011;10114;50.970;4.962;2022-08-21T13:59:43;11.73;;;1.42;;
19903;SDS011;10114;50.970;4.962;2022-08-21T14:04:42;11.48;;;1.83;;
19903;SDS011;10114;50.970;4.962;2022-08-21T14:07:15;7.97;;;1.67;;
19903;SDS011;10114;50.970;4.962;2022-08-21T14:09:43;7.78;;;1.50;;
19903;SDS011;10114;50.970;4.962;2022-08-21T14:12:14;8.20;;;2.10;;
19903;SDS011;10114;50.970;4.962;2022-08-21T14:14:40;10.20;;;1.95;;
19903;SDS011;10114;50.970;4.962;2022-08-21T14:17:09;7.22;;;1.90;;
19903;SDS011;10114;50.970;4.962;2022-08-21T14:19:38;9.68;;;1.65;;
19903;SDS011;10114;50.970;4.962;2022-08-21T14:24:48;6.90;;;1.70;;
19903;SDS011;10114;50.970;4.962;2022-08-21T14:27:16;9.48;;;1.25;;
19903;SDS011;10114;50.970;4.962;2022-08-21T14:29:43;9.60;;;1.23;;
19903;SDS011;10114;50.970;4.962;2022-08-21T14:32:13;8.55;;;1.60;;
19903;SDS011;10114;50.970;4.962;2022-08-21T14:34:40;9.57;;;2.15;;
19903;SDS011;10114;50.970;4.962;2022-08-21T14:37:06;7.85;;;1.30;;
19903;SDS011;10114;50.970;4.962;2022-08-21T14:39:32;10.23;;;1.60;;
19903;SDS011;10114;50.970;4.962;2022-08-21T14:41:58;6.55;;;1.48;;
19903;SDS011;10114;50.970;4.962;2022-08-21T14:44:25;10.32;;;1.95;;
19903;SDS011;10114;50.970;4.962;2022-08-21T14:46:52;8.80;;;1.75;;
19903;SDS011;10114;50.970;4.962;2022-08-21T14:49:18;6.50;;;1.48;;
19903;SDS011;10114;50.970;4.962;2022-08-21T14:51:44;6.18;;;1.42;;
19903;SDS011;10114;50.970;4.962;2022-08-21T14:54:10;8.20;;;1.75;;
19903;SDS011;10114;50.970;4.962;2022-08-21T14:56:36;7.03;;;1.42;;
19903;SDS011;10114;50.970;4.962;2022-08-21T14:59:04;13.65;;;1.85;;
19903;SDS011;10114;50.970;4.962;2022-08-21T15:01:30;7.47;;;1.83;;
19903;SDS011;10114;50.970;4.962;2022-08-21T15:03:57;9.77;;;1.88;;
19903;SDS011;10114;50.970;4.962;2022-08-21T15:06:23;7.63;;;1.73;;
19903;SDS011;10114;50.970;4.962;2022-08-21T15:08:49;5.78;;;1.40;;
19903;SDS011;10114;50.970;4.962;2022-08-21T15:11:17;8.05;;;1.80;;
19903;SDS011;10114;50.970;4.962;2022-08-21T15:13:43;13.90;;;2.05;;
19903;SDS011;10114;50.970;4.962;2022-08-21T15:16:10;8.43;;;1.70;;
19903;SDS011;10114;50.970;4.962;2022-08-21T15:18:36;14.60;;;1.98;;
19903;SDS011;10114;50.970;4.962;2022-08-21T15:21:02;7.97;;;1.25;;
19903;SDS011;10114;50.970;4.962;2022-08-21T15:23:29;10.77;;;1.55;;
19903;SDS011;10114;50.970;4.962;2022-08-21T15:25:55;9.18;;;1.90;;
19903;SDS011;10114;50.970;4.962;2022-08-21T15:28:22;6.88;;;1.50;;
19903;SDS011;10114;50.970;4.962;2022-08-21T15:30:49;7.65;;;1.50;;
19903;SDS011;10114;50.970;4.962;2022-08-21T15:33:15;9.82;;;1.70;;
19903;SDS011;10114;50.970;4.962;2022-08-21T15:35:41;6.20;;;1.42;;
19903;SDS011;10114;50.970;4.962;2022-08-21T15:38:08;6.65;;;1.70;;
19903;SDS011;10114;50.970;4.962;2022-08-21T15:40:35;9.75;;;1.77;;
19903;SDS011;10114;50.970;4.962;2022-08-21T15:43:01;6.80;;;1.75;;
19903;SDS011;10114;50.970;4.962;2022-08-21T15:45:28;6.95;;;1.90;;
19903;SDS011;10114;50.970;4.962;2022-08-21T15:47:54;8.43;;;1.45;;
19903;SDS011;10114;50.970;4.962;2022-08-21T15:50:20;8.13;;;1.40;;
19903;SDS011;10114;50.970;4.962;2022-08-21T15:52:47;5.40;;;1.30;;
19903;SDS011;10114;50.970;4.962;2022-08-21T15:55:13;8.82;;;1.50;;
19903;SDS011;10114;50.970;4.962;2022-08-21T15:57:44;8.48;;;1.80;;
19903;SDS011;10114;50.970;4.962;2022-08-21T16:00:11;11.68;;;1.67;;
19903;SDS011;10114;50.970;4.962;2022-08-21T16:02:38;7.78;;;1.50;;
19903;SDS011;10114;50.970;4.962;2022-08-21T16:05:05;10.43;;;2.10;;